Startpagina
METAR-TAF:

METAR-TAF

Vliegvelden :

Szeged, Hongarije

breedte: 46-15N, lengte: 020-06E, hoogte: 82 m

Actueel weer

Dit bericht is 53 minuten geleden gemaakt, om 23:45 UTC
Wind 13 kt uit het noordnoordoosten
Temperatuur 1°C
Vochtigheid 93%
Druk 1015 hPa
Zicht: 5000 m
Geheel bewolkt op 600 ft
ijskorrels

METAR: LHUD 212345Z 03013KT 5000 PL OVC006 01/M00 Q1015

Tijdstip: 01:38 (00:38 UTC)


TAF: ontbreekt

Waarnemingen en weersverwachtingen van meer dan 4000 vliegvelden (METAR en TAF).

De beschikbare stations zijn de gele en rode punten op de kaart.

Ga met uw muis naar het station om de naam te zien.

Klik dan om waarnemingen en weersverwachtingen te zien.

kaart wijzigen: klik op de groene knoppen met een zwart kruis om in te zoomen, op de groene knop met een streepje om uit te zoomen of op de groene pijlen voor aangrenzende kaarten.


METAR-TAF: